sensor_id;sensor_type;location;lat;lon;timestamp;P1;durP1;ratioP1;P2;durP2;ratioP2
20318;SDS011;10317;47.254;11.314;2023-02-15T00:01:14;11.00;;;6.38;;
20318;SDS011;10317;47.254;11.314;2023-02-15T00:03:39;8.02;;;6.15;;
20318;SDS011;10317;47.254;11.314;2023-02-15T00:06:05;10.43;;;5.95;;
20318;SDS011;10317;47.254;11.314;2023-02-15T00:08:31;9.40;;;6.28;;
20318;SDS011;10317;47.254;11.314;2023-02-15T00:11:04;8.55;;;6.18;;
20318;SDS011;10317;47.254;11.314;2023-02-15T00:13:31;8.45;;;6.03;;
20318;SDS011;10317;47.254;11.314;2023-02-15T00:16:00;9.85;;;6.28;;
20318;SDS011;10317;47.254;11.314;2023-02-15T00:18:34;7.47;;;5.38;;
20318;SDS011;10317;47.254;11.314;2023-02-15T00:21:10;8.30;;;5.30;;
20318;SDS011;10317;47.254;11.314;2023-02-15T00:23:36;7.85;;;6.00;;
20318;SDS011;10317;47.254;11.314;2023-02-15T01:24:59;10.45;;;6.13;;
20318;SDS011;10317;47.254;11.314;2023-02-15T01:27:25;10.15;;;6.13;;
20318;SDS011;10317;47.254;11.314;2023-02-15T01:29:51;9.07;;;5.78;;
20318;SDS011;10317;47.254;11.314;2023-02-15T01:32:16;9.55;;;6.10;;
20318;SDS011;10317;47.254;11.314;2023-02-15T01:34:42;8.68;;;5.93;;
20318;SDS011;10317;47.254;11.314;2023-02-15T01:37:07;15.65;;;6.53;;
20318;SDS011;10317;47.254;11.314;2023-02-15T01:39:33;10.27;;;6.22;;
20318;SDS011;10317;47.254;11.314;2023-02-15T01:41:59;8.80;;;5.55;;
20318;SDS011;10317;47.254;11.314;2023-02-15T01:52:57;9.15;;;6.38;;
20318;SDS011;10317;47.254;11.314;2023-02-15T01:55:30;9.65;;;6.13;;
20318;SDS011;10317;47.254;11.314;2023-02-15T01:57:59;9.45;;;6.28;;
20318;SDS011;10317;47.254;11.314;2023-02-15T02:00:25;10.90;;;6.50;;
20318;SDS011;10317;47.254;11.314;2023-02-15T02:02:53;10.20;;;6.57;;
20318;SDS011;10317;47.254;11.314;2023-02-15T02:05:21;10.27;;;7.32;;
20318;SDS011;10317;47.254;11.314;2023-02-15T02:07:47;8.80;;;6.50;;
20318;SDS011;10317;47.254;11.314;2023-02-15T02:10:17;9.35;;;5.65;;
20318;SDS011;10317;47.254;11.314;2023-02-15T02:12:46;10.57;;;6.43;;
20318;SDS011;10317;47.254;11.314;2023-02-15T02:15:15;8.25;;;6.47;;
20318;SDS011;10317;47.254;11.314;2023-02-15T02:20:32;14.73;;;6.75;;
20318;SDS011;10317;47.254;11.314;2023-02-15T02:29:54;7.75;;;5.82;;
20318;SDS011;10317;47.254;11.314;2023-02-15T02:35:34;12.98;;;6.72;;
20318;SDS011;10317;47.254;11.314;2023-02-15T02:38:20;9.13;;;6.80;;
20318;SDS011;10317;47.254;11.314;2023-02-15T02:43:32;9.70;;;6.78;;
20318;SDS011;10317;47.254;11.314;2023-02-15T02:49:02;9.13;;;6.18;;
20318;SDS011;10317;47.254;11.314;2023-02-15T02:51:27;9.95;;;6.35;;
20318;SDS011;10317;47.254;11.314;2023-02-15T02:53:54;12.05;;;7.20;;
20318;SDS011;10317;47.254;11.314;2023-02-15T02:59:24;10.63;;;7.22;;
20318;SDS011;10317;47.254;11.314;2023-02-15T03:02:01;8.73;;;6.45;;
20318;SDS011;10317;47.254;11.314;2023-02-15T03:04:49;10.48;;;6.43;;
20318;SDS011;10317;47.254;11.314;2023-02-15T03:07:23;12.68;;;6.63;;
20318;SDS011;10317;47.254;11.314;2023-02-15T03:09:53;10.40;;;6.93;;
20318;SDS011;10317;47.254;11.314;2023-02-15T03:12:30;14.38;;;6.28;;
20318;SDS011;10317;47.254;11.314;2023-02-15T03:15:03;11.18;;;6.35;;
20318;SDS011;10317;47.254;11.314;2023-02-15T03:17:33;10.60;;;6.55;;
20318;SDS011;10317;47.254;11.314;2023-02-15T03:20:06;9.30;;;6.07;;
20318;SDS011;10317;47.254;11.314;2023-02-15T03:22:38;10.85;;;6.45;;
20318;SDS011;10317;47.254;11.314;2023-02-15T03:25:14;11.60;;;6.03;;
20318;SDS011;10317;47.254;11.314;2023-02-15T03:27:46;10.52;;;6.50;;
20318;SDS011;10317;47.254;11.314;2023-02-15T03:30:15;9.60;;;6.35;;
20318;SDS011;10317;47.254;11.314;2023-02-15T03:32:45;9.18;;;5.75;;
20318;SDS011;10317;47.254;11.314;2023-02-15T03:35:12;8.82;;;6.10;;
20318;SDS011;10317;47.254;11.314;2023-02-15T04:04:49;9.68;;;6.18;;
20318;SDS011;10317;47.254;11.314;2023-02-15T04:07:14;10.00;;;5.72;;
20318;SDS011;10317;47.254;11.314;2023-02-15T04:09:40;7.55;;;5.78;;
20318;SDS011;10317;47.254;11.314;2023-02-15T04:12:24;11.32;;;6.70;;
20318;SDS011;10317;47.254;11.314;2023-02-15T04:14:50;8.80;;;6.85;;
20318;SDS011;10317;47.254;11.314;2023-02-15T04:17:35;8.02;;;6.00;;
20318;SDS011;10317;47.254;11.314;2023-02-15T04:20:02;9.00;;;6.28;;
20318;SDS011;10317;47.254;11.314;2023-02-15T04:22:47;8.57;;;5.90;;
20318;SDS011;10317;47.254;11.314;2023-02-15T04:25:31;9.02;;;6.60;;
20318;SDS011;10317;47.254;11.314;2023-02-15T04:27:56;9.43;;;6.18;;
20318;SDS011;10317;47.254;11.314;2023-02-15T04:30:24;11.48;;;6.63;;
20318;SDS011;10317;47.254;11.314;2023-02-15T04:32:50;9.75;;;6.07;;
20318;SDS011;10317;47.254;11.314;2023-02-15T04:35:16;9.00;;;6.00;;
20318;SDS011;10317;47.254;11.314;2023-02-15T04:37:42;11.32;;;6.15;;
20318;SDS011;10317;47.254;11.314;2023-02-15T04:40:11;7.80;;;6.05;;
20318;SDS011;10317;47.254;11.314;2023-02-15T04:42:39;12.60;;;7.10;;
20318;SDS011;10317;47.254;11.314;2023-02-15T04:45:05;16.38;;;7.25;;
20318;SDS011;10317;47.254;11.314;2023-02-15T04:47:31;12.18;;;6.47;;
20318;SDS011;10317;47.254;11.314;2023-02-15T04:49:57;13.70;;;7.32;;
20318;SDS011;10317;47.254;11.314;2023-02-15T04:52:23;16.73;;;7.20;;
20318;SDS011;10317;47.254;11.314;2023-02-15T04:54:48;9.50;;;6.45;;
20318;SDS011;10317;47.254;11.314;2023-02-15T05:24:37;8.95;;;6.38;;
20318;SDS011;10317;47.254;11.314;2023-02-15T05:27:22;11.52;;;6.32;;
20318;SDS011;10317;47.254;11.314;2023-02-15T05:30:06;9.00;;;6.32;;
20318;SDS011;10317;47.254;11.314;2023-02-15T05:32:36;9.52;;;5.68;;
20318;SDS011;10317;47.254;11.314;2023-02-15T05:35:05;6.57;;;5.68;;
20318;SDS011;10317;47.254;11.314;2023-02-15T05:37:31;12.15;;;6.15;;
20318;SDS011;10317;47.254;11.314;2023-02-15T05:39:57;9.05;;;5.50;;
20318;SDS011;10317;47.254;11.314;2023-02-15T05:42:23;10.38;;;5.95;;
20318;SDS011;10317;47.254;11.314;2023-02-15T05:44:48;8.85;;;5.93;;
20318;SDS011;10317;47.254;11.314;2023-02-15T05:47:14;11.95;;;7.20;;
20318;SDS011;10317;47.254;11.314;2023-02-15T05:49:40;8.73;;;6.43;;
20318;SDS011;10317;47.254;11.314;2023-02-15T05:52:05;9.50;;;6.40;;
20318;SDS011;10317;47.254;11.314;2023-02-15T05:54:31;11.07;;;6.53;;
20318;SDS011;10317;47.254;11.314;2023-02-15T05:56:57;7.32;;;6.63;;
20318;SDS011;10317;47.254;11.314;2023-02-15T05:59:22;11.20;;;7.03;;
20318;SDS011;10317;47.254;11.314;2023-02-15T06:01:48;9.98;;;6.25;;
20318;SDS011;10317;47.254;11.314;2023-02-15T06:04:14;13.27;;;6.57;;
20318;SDS011;10317;47.254;11.314;2023-02-15T06:06:40;9.43;;;5.97;;
20318;SDS011;10317;47.254;11.314;2023-02-15T06:09:05;9.18;;;6.18;;
20318;SDS011;10317;47.254;11.314;2023-02-15T06:11:31;12.45;;;6.78;;
20318;SDS011;10317;47.254;11.314;2023-02-15T06:13:56;10.25;;;6.30;;
20318;SDS011;10317;47.254;11.314;2023-02-15T06:16:22;11.00;;;6.75;;
20318;SDS011;10317;47.254;11.314;2023-02-15T06:18:48;13.20;;;7.47;;
20318;SDS011;10317;47.254;11.314;2023-02-15T06:21:13;8.32;;;6.45;;
20318;SDS011;10317;47.254;11.314;2023-02-15T06:23:39;9.90;;;6.63;;
20318;SDS011;10317;47.254;11.314;2023-02-15T06:26:05;11.20;;;6.28;;
20318;SDS011;10317;47.254;11.314;2023-02-15T06:28:31;7.35;;;5.72;;
20318;SDS011;10317;47.254;11.314;2023-02-15T06:30:56;10.50;;;5.90;;
20318;SDS011;10317;47.254;11.314;2023-02-15T06:33:22;8.75;;;6.45;;
20318;SDS011;10317;47.254;11.314;2023-02-15T06:35:48;10.18;;;6.35;;
20318;SDS011;10317;47.254;11.314;2023-02-15T06:38:14;10.02;;;6.03;;
20318;SDS011;10317;47.254;11.314;2023-02-15T06:40:39;8.52;;;6.70;;
20318;SDS011;10317;47.254;11.314;2023-02-15T06:43:05;10.68;;;6.75;;
20318;SDS011;10317;47.254;11.314;2023-02-15T06:45:31;9.73;;;6.60;;
20318;SDS011;10317;47.254;11.314;2023-02-15T06:47:58;10.73;;;6.25;;
20318;SDS011;10317;47.254;11.314;2023-02-15T06:50:23;8.43;;;6.72;;
20318;SDS011;10317;47.254;11.314;2023-02-15T06:52:49;9.50;;;6.55;;
20318;SDS011;10317;47.254;11.314;2023-02-15T06:55:19;9.65;;;6.53;;
20318;SDS011;10317;47.254;11.314;2023-02-15T06:57:45;7.63;;;6.15;;
20318;SDS011;10317;47.254;11.314;2023-02-15T07:00:11;13.18;;;7.00;;
20318;SDS011;10317;47.254;11.314;2023-02-15T07:02:37;15.93;;;7.50;;
20318;SDS011;10317;47.254;11.314;2023-02-15T07:05:03;9.52;;;6.40;;
20318;SDS011;10317;47.254;11.314;2023-02-15T07:07:29;12.38;;;6.90;;
20318;SDS011;10317;47.254;11.314;2023-02-15T07:09:55;8.32;;;6.70;;
20318;SDS011;10317;47.254;11.314;2023-02-15T07:12:21;10.95;;;6.80;;
20318;SDS011;10317;47.254;11.314;2023-02-15T07:15:05;8.95;;;6.63;;
20318;SDS011;10317;47.254;11.314;2023-02-15T07:17:32;12.10;;;6.90;;
20318;SDS011;10317;47.254;11.314;2023-02-15T07:19:58;12.32;;;7.18;;
20318;SDS011;10317;47.254;11.314;2023-02-15T07:22:24;13.10;;;8.32;;
20318;SDS011;10317;47.254;11.314;2023-02-15T07:24:49;11.25;;;7.20;;
20318;SDS011;10317;47.254;11.314;2023-02-15T07:27:19;13.30;;;6.70;;
20318;SDS011;10317;47.254;11.314;2023-02-15T07:29:45;10.13;;;6.85;;
20318;SDS011;10317;47.254;11.314;2023-02-15T07:32:10;8.85;;;6.50;;
20318;SDS011;10317;47.254;11.314;2023-02-15T07:34:36;9.05;;;6.68;;
20318;SDS011;10317;47.254;11.314;2023-02-15T07:37:02;12.07;;;6.90;;
20318;SDS011;10317;47.254;11.314;2023-02-15T07:39:27;10.38;;;7.00;;
20318;SDS011;10317;47.254;11.314;2023-02-15T07:41:53;11.82;;;7.18;;
20318;SDS011;10317;47.254;11.314;2023-02-15T07:44:19;9.90;;;6.82;;
20318;SDS011;10317;47.254;11.314;2023-02-15T07:46:44;11.27;;;6.43;;
20318;SDS011;10317;47.254;11.314;2023-02-15T07:49:10;10.60;;;7.10;;
20318;SDS011;10317;47.254;11.314;2023-02-15T07:51:36;11.95;;;7.25;;
20318;SDS011;10317;47.254;11.314;2023-02-15T07:54:01;8.23;;;6.22;;
20318;SDS011;10317;47.254;11.314;2023-02-15T07:56:27;9.27;;;6.22;;
20318;SDS011;10317;47.254;11.314;2023-02-15T07:58:53;10.20;;;6.03;;
20318;SDS011;10317;47.254;11.314;2023-02-15T08:01:27;9.40;;;6.07;;
20318;SDS011;10317;47.254;11.314;2023-02-15T08:03:57;9.23;;;6.63;;
20318;SDS011;10317;47.254;11.314;2023-02-15T08:06:24;9.60;;;6.15;;
20318;SDS011;10317;47.254;11.314;2023-02-15T08:08:51;10.85;;;6.15;;
20318;SDS011;10317;47.254;11.314;2023-02-15T08:11:22;7.30;;;6.20;;
20318;SDS011;10317;47.254;11.314;2023-02-15T08:14:03;9.65;;;5.63;;
20318;SDS011;10317;47.254;11.314;2023-02-15T08:19:36;8.75;;;5.38;;
20318;SDS011;10317;47.254;11.314;2023-02-15T08:22:00;10.10;;;5.88;;
20318;SDS011;10317;47.254;11.314;2023-02-15T08:24:36;11.32;;;5.80;;
20318;SDS011;10317;47.254;11.314;2023-02-15T08:27:02;7.45;;;5.32;;
20318;SDS011;10317;47.254;11.314;2023-02-15T08:29:29;8.68;;;5.40;;
20318;SDS011;10317;47.254;11.314;2023-02-15T08:32:03;8.27;;;4.88;;
20318;SDS011;10317;47.254;11.314;2023-02-15T08:34:31;9.50;;;5.38;;
20318;SDS011;10317;47.254;11.314;2023-02-15T08:36:59;7.72;;;4.30;;
20318;SDS011;10317;47.254;11.314;2023-02-15T08:39:25;4.93;;;4.35;;
20318;SDS011;10317;47.254;11.314;2023-02-15T08:41:51;6.95;;;4.97;;
20318;SDS011;10317;47.254;11.314;2023-02-15T08:44:17;8.45;;;5.78;;
20318;SDS011;10317;47.254;11.314;2023-02-15T08:46:44;5.55;;;3.75;;
20318;SDS011;10317;47.254;11.314;2023-02-15T08:49:21;6.85;;;4.22;;
20318;SDS011;10317;47.254;11.314;2023-02-15T08:51:47;5.80;;;4.20;;
20318;SDS011;10317;47.254;11.314;2023-02-15T08:54:15;5.22;;;4.20;;
20318;SDS011;10317;47.254;11.314;2023-02-15T08:56:43;5.93;;;4.00;;
20318;SDS011;10317;47.254;11.314;2023-02-15T08:59:16;5.55;;;4.50;;
20318;SDS011;10317;47.254;11.314;2023-02-15T09:01:44;7.60;;;3.90;;
20318;SDS011;10317;47.254;11.314;2023-02-15T09:04:10;4.85;;;3.90;;
20318;SDS011;10317;47.254;11.314;2023-02-15T09:06:37;5.43;;;4.07;;
20318;SDS011;10317;47.254;11.314;2023-02-15T09:09:04;5.55;;;4.07;;
20318;SDS011;10317;47.254;11.314;2023-02-15T09:11:32;5.25;;;3.80;;
20318;SDS011;10317;47.254;11.314;2023-02-15T09:14:00;6.18;;;3.97;;
20318;SDS011;10317;47.254;11.314;2023-02-15T09:16:31;5.70;;;4.03;;
20318;SDS011;10317;47.254;11.314;2023-02-15T09:18:59;4.28;;;3.58;;
20318;SDS011;10317;47.254;11.314;2023-02-15T09:21:30;3.97;;;3.33;;
20318;SDS011;10317;47.254;11.314;2023-02-15T09:23:57;5.82;;;3.63;;
20318;SDS011;10317;47.254;11.314;2023-02-15T09:26:25;3.90;;;3.50;;
20318;SDS011;10317;47.254;11.314;2023-02-15T09:28:53;5.97;;;3.30;;
20318;SDS011;10317;47.254;11.314;2023-02-15T09:31:21;3.90;;;2.85;;
20318;SDS011;10317;47.254;11.314;2023-02-15T09:33:51;4.45;;;3.20;;
20318;SDS011;10317;47.254;11.314;2023-02-15T09:38:43;3.53;;;3.10;;
20318;SDS011;10317;47.254;11.314;2023-02-15T09:41:19;5.68;;;3.45;;
20318;SDS011;10317;47.254;11.314;2023-02-15T09:43:54;4.97;;;3.45;;
20318;SDS011;10317;47.254;11.314;2023-02-15T09:48:52;4.93;;;3.55;;
20318;SDS011;10317;47.254;11.314;2023-02-15T09:54:32;4.05;;;2.95;;
20318;SDS011;10317;47.254;11.314;2023-02-15T10:06:08;3.40;;;3.15;;
20318;SDS011;10317;47.254;11.314;2023-02-15T10:09:10;5.30;;;3.38;;
20318;SDS011;10317;47.254;11.314;2023-02-15T10:28:51;3.97;;;2.83;;
20318;SDS011;10317;47.254;11.314;2023-02-15T10:34:51;3.40;;;2.75;;
20318;SDS011;10317;47.254;11.314;2023-02-15T10:37:46;3.28;;;2.47;;
20318;SDS011;10317;47.254;11.314;2023-02-15T10:40:25;3.15;;;2.65;;
20318;SDS011;10317;47.254;11.314;2023-02-15T10:45:47;2.67;;;2.30;;
20318;SDS011;10317;47.254;11.314;2023-02-15T10:54:14;2.22;;;2.05;;
20318;SDS011;10317;47.254;11.314;2023-02-15T11:02:06;2.20;;;2.00;;
20318;SDS011;10317;47.254;11.314;2023-02-15T11:07:26;2.17;;;1.98;;
20318;SDS011;10317;47.254;11.314;2023-02-15T11:12:31;4.15;;;2.10;;
20318;SDS011;10317;47.254;11.314;2023-02-15T11:15:00;2.47;;;2.00;;
20318;SDS011;10317;47.254;11.314;2023-02-15T11:17:50;2.10;;;1.90;;
20318;SDS011;10317;47.254;11.314;2023-02-15T11:20:25;2.38;;;2.17;;
20318;SDS011;10317;47.254;11.314;2023-02-15T11:22:55;4.43;;;2.40;;
20318;SDS011;10317;47.254;11.314;2023-02-15T11:25:25;3.03;;;2.03;;
20318;SDS011;10317;47.254;11.314;2023-02-15T11:27:58;3.67;;;2.67;;
20318;SDS011;10317;47.254;11.314;2023-02-15T11:30:32;4.28;;;2.20;;
20318;SDS011;10317;47.254;11.314;2023-02-15T11:33:35;2.65;;;2.03;;
20318;SDS011;10317;47.254;11.314;2023-02-15T11:36:08;2.00;;;1.90;;
20318;SDS011;10317;47.254;11.314;2023-02-15T11:38:43;2.72;;;1.90;;
20318;SDS011;10317;47.254;11.314;2023-02-15T11:41:13;2.05;;;1.67;;
20318;SDS011;10317;47.254;11.314;2023-02-15T11:46:21;3.20;;;1.88;;
20318;SDS011;10317;47.254;11.314;2023-02-15T11:48:47;5.70;;;2.20;;
20318;SDS011;10317;47.254;11.314;2023-02-15T11:51:14;1.60;;;1.42;;
20318;SDS011;10317;47.254;11.314;2023-02-15T11:53:43;1.77;;;1.67;;
20318;SDS011;10317;47.254;11.314;2023-02-15T11:56:15;2.70;;;1.70;;
20318;SDS011;10317;47.254;11.314;2023-02-15T11:58:56;2.83;;;1.88;;
20318;SDS011;10317;47.254;11.314;2023-02-15T12:01:30;1.50;;;1.40;;
20318;SDS011;10317;47.254;11.314;2023-02-15T12:03:58;1.80;;;1.70;;
20318;SDS011;10317;47.254;11.314;2023-02-15T12:06:35;1.98;;;1.42;;
20318;SDS011;10317;47.254;11.314;2023-02-15T12:09:30;2.67;;;1.40;;
20318;SDS011;10317;47.254;11.314;2023-02-15T12:12:19;1.80;;;1.30;;
20318;SDS011;10317;47.254;11.314;2023-02-15T12:14:48;1.92;;;1.58;;
20318;SDS011;10317;47.254;11.314;2023-02-15T12:17:16;1.50;;;1.40;;
20318;SDS011;10317;47.254;11.314;2023-02-15T12:19:43;2.88;;;1.60;;
20318;SDS011;10317;47.254;11.314;2023-02-15T12:22:20;1.15;;;1.15;;
20318;SDS011;10317;47.254;11.314;2023-02-15T12:24:52;1.45;;;1.40;;
20318;SDS011;10317;47.254;11.314;2023-02-15T12:27:22;1.73;;;1.63;;
20318;SDS011;10317;47.254;11.314;2023-02-15T12:29:58;1.65;;;1.40;;
20318;SDS011;10317;47.254;11.314;2023-02-15T12:32:31;4.88;;;1.70;;
20318;SDS011;10317;47.254;11.314;2023-02-15T12:35:10;1.30;;;1.30;;
20318;SDS011;10317;47.254;11.314;2023-02-15T12:37:51;1.50;;;1.40;;
20318;SDS011;10317;47.254;11.314;2023-02-15T12:40:47;1.45;;;1.35;;
20318;SDS011;10317;47.254;11.314;2023-02-15T12:43:27;1.48;;;1.38;;
20318;SDS011;10317;47.254;11.314;2023-02-15T12:49:06;3.33;;;1.73;;
20318;SDS011;10317;47.254;11.314;2023-02-15T12:51:52;1.27;;;1.23;;
20318;SDS011;10317;47.254;11.314;2023-02-15T12:56:59;1.75;;;1.65;;
20318;SDS011;10317;47.254;11.314;2023-02-15T13:07:38;1.20;;;1.20;;
20318;SDS011;10317;47.254;11.314;2023-02-15T13:13:01;1.45;;;1.33;;
20318;SDS011;10317;47.254;11.314;2023-02-15T13:15:35;1.70;;;1.40;;
20318;SDS011;10317;47.254;11.314;2023-02-15T13:18:04;1.50;;;1.30;;
20318;SDS011;10317;47.254;11.314;2023-02-15T13:20:35;2.53;;;1.33;;
20318;SDS011;10317;47.254;11.314;2023-02-15T13:23:06;1.58;;;1.48;;
20318;SDS011;10317;47.254;11.314;2023-02-15T13:25:45;1.35;;;1.20;;
20318;SDS011;10317;47.254;11.314;2023-02-15T13:28:15;2.60;;;1.42;;
20318;SDS011;10317;47.254;11.314;2023-02-15T13:30:44;1.48;;;1.35;;
20318;SDS011;10317;47.254;11.314;2023-02-15T13:33:33;1.27;;;1.20;;
20318;SDS011;10317;47.254;11.314;2023-02-15T13:44:31;1.73;;;1.63;;
20318;SDS011;10317;47.254;11.314;2023-02-15T13:47:31;4.32;;;1.50;;
20318;SDS011;10317;47.254;11.314;2023-02-15T14:06:52;1.40;;;1.40;;
20318;SDS011;10317;47.254;11.314;2023-02-15T14:20:25;3.20;;;2.08;;
20318;SDS011;10317;47.254;11.314;2023-02-15T14:23:20;1.90;;;1.80;;
20318;SDS011;10317;47.254;11.314;2023-02-15T14:26:27;3.00;;;2.55;;
20318;SDS011;10317;47.254;11.314;2023-02-15T14:31:57;2.20;;;1.85;;
20318;SDS011;10317;47.254;11.314;2023-02-15T14:37:11;4.00;;;2.20;;
20318;SDS011;10317;47.254;11.314;2023-02-15T14:39:48;2.65;;;2.20;;
20318;SDS011;10317;47.254;11.314;2023-02-15T14:42:51;2.40;;;2.20;;
20318;SDS011;10317;47.254;11.314;2023-02-15T14:45:28;3.15;;;1.90;;
20318;SDS011;10317;47.254;11.314;2023-02-15T14:51:02;2.28;;;2.03;;
20318;SDS011;10317;47.254;11.314;2023-02-15T15:01:14;4.25;;;2.47;;
20318;SDS011;10317;47.254;11.314;2023-02-15T15:03:48;2.45;;;2.25;;
20318;SDS011;10317;47.254;11.314;2023-02-15T15:06:28;2.45;;;2.05;;
20318;SDS011;10317;47.254;11.314;2023-02-15T15:08:59;5.07;;;2.38;;
20318;SDS011;10317;47.254;11.314;2023-02-15T15:14:03;4.80;;;2.00;;
20318;SDS011;10317;47.254;11.314;2023-02-15T15:19:11;3.85;;;2.65;;
20318;SDS011;10317;47.254;11.314;2023-02-15T15:30:02;4.70;;;2.30;;
20318;SDS011;10317;47.254;11.314;2023-02-15T15:35:27;2.22;;;2.08;;
20318;SDS011;10317;47.254;11.314;2023-02-15T15:49:12;2.85;;;2.03;;
20318;SDS011;10317;47.254;11.314;2023-02-15T15:51:43;1.90;;;1.80;;
20318;SDS011;10317;47.254;11.314;2023-02-15T15:54:17;3.03;;;2.35;;
20318;SDS011;10317;47.254;11.314;2023-02-15T15:56:48;2.17;;;2.08;;
20318;SDS011;10317;47.254;11.314;2023-02-15T15:59:24;4.05;;;2.40;;
20318;SDS011;10317;47.254;11.314;2023-02-15T16:01:51;4.25;;;1.70;;
20318;SDS011;10317;47.254;11.314;2023-02-15T16:06:55;3.42;;;2.22;;
20318;SDS011;10317;47.254;11.314;2023-02-15T16:09:25;2.03;;;1.92;;
20318;SDS011;10317;47.254;11.314;2023-02-15T16:11:52;2.00;;;1.73;;
20318;SDS011;10317;47.254;11.314;2023-02-15T16:14:29;2.20;;;2.00;;
20318;SDS011;10317;47.254;11.314;2023-02-15T16:16:58;1.85;;;1.75;;
20318;SDS011;10317;47.254;11.314;2023-02-15T16:19:27;2.95;;;2.63;;
20318;SDS011;10317;47.254;11.314;2023-02-15T16:21:57;2.17;;;2.08;;
20318;SDS011;10317;47.254;11.314;2023-02-15T16:29:58;3.90;;;2.50;;
20318;SDS011;10317;47.254;11.314;2023-02-15T16:32:42;3.88;;;2.20;;
20318;SDS011;10317;47.254;11.314;2023-02-15T16:35:14;4.20;;;2.55;;
20318;SDS011;10317;47.254;11.314;2023-02-15T16:37:42;3.22;;;2.47;;
20318;SDS011;10317;47.254;11.314;2023-02-15T17:56:48;3.20;;;2.80;;
20318;SDS011;10317;47.254;11.314;2023-02-15T17:59:14;3.08;;;2.78;;
20318;SDS011;10317;47.254;11.314;2023-02-15T18:01:44;3.78;;;2.47;;
20318;SDS011;10317;47.254;11.314;2023-02-15T18:04:32;3.95;;;2.40;;
20318;SDS011;10317;47.254;11.314;2023-02-15T18:07:18;4.07;;;2.47;;
20318;SDS011;10317;47.254;11.314;2023-02-15T18:10:11;3.95;;;2.90;;
20318;SDS011;10317;47.254;11.314;2023-02-15T18:13:00;3.05;;;2.60;;
20318;SDS011;10317;47.254;11.314;2023-02-15T18:15:26;3.95;;;2.58;;
20318;SDS011;10317;47.254;11.314;2023-02-15T18:17:52;4.50;;;2.75;;
20318;SDS011;10317;47.254;11.314;2023-02-15T18:20:20;5.13;;;3.00;;
20318;SDS011;10317;47.254;11.314;2023-02-15T18:22:51;3.78;;;2.75;;
20318;SDS011;10317;47.254;11.314;2023-02-15T18:25:17;5.07;;;3.05;;
20318;SDS011;10317;47.254;11.314;2023-02-15T18:27:45;3.30;;;3.05;;
20318;SDS011;10317;47.254;11.314;2023-02-15T18:30:15;3.20;;;2.95;;
20318;SDS011;10317;47.254;11.314;2023-02-15T18:32:43;5.18;;;3.15;;
20318;SDS011;10317;47.254;11.314;2023-02-15T18:35:17;4.13;;;2.83;;
20318;SDS011;10317;47.254;11.314;2023-02-15T18:37:44;7.85;;;3.60;;
20318;SDS011;10317;47.254;11.314;2023-02-15T18:40:15;5.18;;;3.22;;
20318;SDS011;10317;47.254;11.314;2023-02-15T18:42:43;5.70;;;3.25;;
20318;SDS011;10317;47.254;11.314;2023-02-15T18:47:44;6.85;;;3.53;;
20318;SDS011;10317;47.254;11.314;2023-02-15T18:50:11;4.65;;;3.13;;
20318;SDS011;10317;47.254;11.314;2023-02-15T18:52:38;3.63;;;3.13;;
20318;SDS011;10317;47.254;11.314;2023-02-15T18:55:18;6.93;;;3.58;;
20318;SDS011;10317;47.254;11.314;2023-02-15T18:57:56;4.13;;;3.28;;
20318;SDS011;10317;47.254;11.314;2023-02-15T19:00:23;3.28;;;2.97;;
20318;SDS011;10317;47.254;11.314;2023-02-15T19:02:54;3.63;;;3.25;;
20318;SDS011;10317;47.254;11.314;2023-02-15T19:05:21;5.22;;;3.08;;
20318;SDS011;10317;47.254;11.314;2023-02-15T19:07:47;8.30;;;3.28;;
20318;SDS011;10317;47.254;11.314;2023-02-15T19:10:17;8.32;;;3.75;;
20318;SDS011;10317;47.254;11.314;2023-02-15T19:12:45;10.95;;;4.68;;
20318;SDS011;10317;47.254;11.314;2023-02-15T19:15:15;9.45;;;5.10;;
20318;SDS011;10317;47.254;11.314;2023-02-15T19:17:43;9.90;;;5.55;;
20318;SDS011;10317;47.254;11.314;2023-02-15T19:20:16;17.08;;;5.93;;
20318;SDS011;10317;47.254;11.314;2023-02-15T19:22:47;10.45;;;5.85;;
20318;SDS011;10317;47.254;11.314;2023-02-15T19:25:24;18.40;;;6.55;;
20318;SDS011;10317;47.254;11.314;2023-02-15T19:27:52;8.88;;;5.20;;
20318;SDS011;10317;47.254;11.314;2023-02-15T19:30:25;12.15;;;4.55;;
20318;SDS011;10317;47.254;11.314;2023-02-15T19:32:54;10.10;;;4.68;;
20318;SDS011;10317;47.254;11.314;2023-02-15T19:35:21;11.43;;;5.45;;
20318;SDS011;10317;47.254;11.314;2023-02-15T19:37:51;9.10;;;6.03;;
20318;SDS011;10317;47.254;11.314;2023-02-15T19:40:22;12.15;;;5.63;;
20318;SDS011;10317;47.254;11.314;2023-02-15T19:42:50;7.82;;;4.57;;
20318;SDS011;10317;47.254;11.314;2023-02-15T19:45:17;7.15;;;4.85;;
20318;SDS011;10317;47.254;11.314;2023-02-15T19:47:45;11.55;;;5.03;;
20318;SDS011;10317;47.254;11.314;2023-02-15T19:50:16;7.93;;;4.55;;
20318;SDS011;10317;47.254;11.314;2023-02-15T19:52:43;9.40;;;5.15;;
20318;SDS011;10317;47.254;11.314;2023-02-15T19:58:09;9.57;;;4.20;;
20318;SDS011;10317;47.254;11.314;2023-02-15T20:00:36;7.68;;;4.43;;
20318;SDS011;10317;47.254;11.314;2023-02-15T20:03:02;5.88;;;4.13;;
20318;SDS011;10317;47.254;11.314;2023-02-15T20:05:28;9.77;;;4.70;;
20318;SDS011;10317;47.254;11.314;2023-02-15T20:07:55;7.60;;;4.55;;
20318;SDS011;10317;47.254;11.314;2023-02-15T20:10:28;6.55;;;4.18;;
20318;SDS011;10317;47.254;11.314;2023-02-15T20:12:55;8.18;;;4.68;;
20318;SDS011;10317;47.254;11.314;2023-02-15T20:15:40;11.15;;;4.97;;
20318;SDS011;10317;47.254;11.314;2023-02-15T20:18:06;10.65;;;4.53;;
20318;SDS011;10317;47.254;11.314;2023-02-15T20:23:19;6.97;;;4.28;;
20318;SDS011;10317;47.254;11.314;2023-02-15T20:25:50;11.40;;;4.68;;
20318;SDS011;10317;47.254;11.314;2023-02-15T20:28:18;7.95;;;4.78;;
20318;SDS011;10317;47.254;11.314;2023-02-15T20:30:48;7.45;;;4.43;;
20318;SDS011;10317;47.254;11.314;2023-02-15T20:33:14;10.40;;;4.65;;
20318;SDS011;10317;47.254;11.314;2023-02-15T20:35:41;4.65;;;3.83;;
20318;SDS011;10317;47.254;11.314;2023-02-15T20:38:18;5.65;;;3.90;;
20318;SDS011;10317;47.254;11.314;2023-02-15T20:40:47;5.00;;;3.75;;
20318;SDS011;10317;47.254;11.314;2023-02-15T20:43:31;8.18;;;4.35;;
20318;SDS011;10317;47.254;11.314;2023-02-15T20:45:58;6.53;;;4.18;;
20318;SDS011;10317;47.254;11.314;2023-02-15T20:48:24;9.15;;;5.00;;
20318;SDS011;10317;47.254;11.314;2023-02-15T20:50:49;6.63;;;4.63;;
20318;SDS011;10317;47.254;11.314;2023-02-15T20:53:17;5.90;;;4.18;;
20318;SDS011;10317;47.254;11.314;2023-02-15T20:55:44;9.65;;;4.97;;
20318;SDS011;10317;47.254;11.314;2023-02-15T20:58:26;6.10;;;4.78;;
20318;SDS011;10317;47.254;11.314;2023-02-15T21:00:54;6.75;;;5.65;;
20318;SDS011;10317;47.254;11.314;2023-02-15T21:03:22;7.22;;;4.35;;
20318;SDS011;10317;47.254;11.314;2023-02-15T21:05:55;8.48;;;5.07;;
20318;SDS011;10317;47.254;11.314;2023-02-15T21:08:21;5.90;;;4.30;;
20318;SDS011;10317;47.254;11.314;2023-02-15T21:10:49;9.65;;;4.35;;
20318;SDS011;10317;47.254;11.314;2023-02-15T21:33:11;7.95;;;5.05;;
20318;SDS011;10317;47.254;11.314;2023-02-15T21:53:39;5.80;;;4.22;;
20318;SDS011;10317;47.254;11.314;2023-02-15T21:56:10;7.50;;;4.68;;
20318;SDS011;10317;47.254;11.314;2023-02-15T21:58:44;6.93;;;4.88;;
20318;SDS011;10317;47.254;11.314;2023-02-15T22:01:20;9.77;;;4.45;;
20318;SDS011;10317;47.254;11.314;2023-02-15T22:03:46;11.32;;;5.25;;
20318;SDS011;10317;47.254;11.314;2023-02-15T22:33:49;13.73;;;5.90;;